Time;durP1;ratioP1;P1;durP2;ratioP2;P2;SDS_P1;SDS_P2;PMS_P1;PMS_P2;Temp;Humidity;BMP_temperature;BMP_pressure;BME280_temperature;BME280_humidity;BME280_pressure;Samples;Min_cycle;Max_cycle;Signal;HPM_P1;HPM_P2
2022/10/29 00:02:07;;;;;;;11.53;6.15;;;;;;;14.04;97.79;99604.86;1725708;81;20989;-67
2022/10/29 00:04:33;;;;;;;10.07;5.60;;;;;;;14.06;97.85;99609.55;1730380;82;22478;-67
2022/10/29 00:07:00;;;;;;;13.23;5.90;;;;;;;14.09;97.86;99604.11;1733811;81;21726;-67
2022/10/29 00:09:26;;;;;;;8.87;5.50;;;;;;;14.09;97.99;99600.64;1728947;81;20950;-67
2022/10/29 00:11:53;;;;;;;10.97;6.40;;;;;;;14.13;97.95;99599.97;1711693;82;21033;-67
2022/10/29 00:14:20;;;;;;;12.17;6.27;;;;;;;14.15;97.94;99591.53;1706191;82;21495;-67
2022/10/29 00:16:46;;;;;;;12.70;5.77;;;;;;;14.15;97.94;99591.53;1687162;83;21386;-67
2022/10/29 00:19:13;;;;;;;8.20;5.23;;;;;;;14.16;97.66;99593.20;1697801;83;21072;-67
2022/10/29 00:21:39;;;;;;;9.50;5.60;;;;;;;14.14;97.67;99588.04;1722966;82;21009;-67
2022/10/29 00:24:09;;;;;;;12.82;5.72;;;;;;;14.14;97.64;99584.58;1732994;82;21005;-66
2022/10/29 00:26:36;;;;;;;14.75;6.15;;;;;;;14.12;97.77;99586.48;1692031;83;21502;-66
2022/10/29 00:29:03;;;;;;;8.03;5.80;;;;;;;14.15;97.74;99583.66;1731104;82;21128;-66
2022/10/29 00:31:49;;;;;;;11.28;5.70;;;;;;;14.15;97.77;99583.66;1715328;82;20938;-67
2022/10/29 00:34:16;;;;;;;12.40;6.50;;;;;;;14.21;97.47;99588.51;1681125;83;21149;-67
2022/10/29 00:36:43;;;;;;;15.18;5.80;;;;;;;14.21;97.43;99587.20;1706451;83;21023;-67
2022/10/29 00:39:14;;;;;;;12.07;6.00;;;;;;;14.23;97.54;99581.38;1722660;83;20914;-67
2022/10/29 00:41:41;;;;;;;14.93;6.05;;;;;;;14.19;97.84;99575.47;1702363;83;21174;-67
2022/10/29 00:44:34;;;;;;;13.00;6.70;;;;;;;14.23;97.70;99570.88;1720948;82;21036;-67
2022/10/29 00:47:23;;;;;;;10.05;5.55;;;;;;;14.22;97.69;99566.55;1734312;81;21091;-67
2022/10/29 00:50:01;;;;;;;9.18;5.47;;;;;;;14.23;97.86;99566.94;1744750;80;21047;-67
2022/10/29 00:52:31;;;;;;;10.35;5.47;;;;;;;14.25;97.96;99568.49;1749416;80;21146;-67
2022/10/29 00:55:02;;;;;;;10.48;5.25;;;;;;;14.28;98.10;99568.33;1746895;80;21104;-68
2022/10/29 00:57:39;;;;;;;7.47;5.37;;;;;;;14.34;97.72;99576.27;1755522;80;21050;-67
2022/10/29 01:00:24;;;;;;;17.27;6.40;;;;;;;14.36;98.11;99573.05;1728642;81;21550;-68
2022/10/29 01:02:51;;;;;;;9.30;5.33;;;;;;;14.39;98.13;99561.03;1727815;81;20998;-68
2022/10/29 01:05:22;;;;;;;10.73;5.53;;;;;;;14.40;98.19;99557.48;1728695;81;21140;-68
2022/10/29 01:07:48;;;;;;;11.60;5.40;;;;;;;14.43;98.16;99549.40;1730149;81;21923;-68
2022/10/29 01:10:57;;;;;;;12.37;5.60;;;;;;;14.42;98.05;99535.87;1729957;82;21072;-68
2022/10/29 01:14:00;;;;;;;10.08;5.30;;;;;;;14.43;98.11;99545.94;1729478;81;21049;-68
2022/10/29 01:16:35;;;;;;;10.32;5.45;;;;;;;14.51;97.74;99553.67;1731012;81;21087;-67
2022/10/29 01:19:35;;;;;;;13.18;4.92;;;;;;;14.55;97.65;99550.39;1734922;81;21002;-68
2022/10/29 01:22:23;;;;;;;13.55;4.85;;;;;;;14.60;97.81;99539.59;1731852;81;21279;-66
2022/10/29 01:25:27;;;;;;;14.30;5.45;;;;;;;14.64;97.68;99538.43;1727154;81;21100;-68
2022/10/29 01:28:42;;;;;;;8.85;4.85;;;;;;;14.66;97.65;99551.00;1729807;81;21595;-68
2022/10/29 01:31:33;;;;;;;10.88;5.28;;;;;;;14.66;97.73;99537.39;1727558;81;21571;-67
2022/10/29 01:34:23;;;;;;;10.68;5.42;;;;;;;14.68;97.73;99534.67;1736774;81;21021;-67
2022/10/29 01:37:20;;;;;;;13.32;5.83;;;;;;;14.72;97.66;99536.13;1712808;81;21155;-67
2022/10/29 01:40:01;;;;;;;10.93;5.60;;;;;;;14.72;97.60;99538.77;1726305;81;21589;-68
2022/10/29 01:42:40;;;;;;;14.95;5.10;;;;;;;14.74;97.62;99539.51;1732054;81;20922;-68
2022/10/29 01:45:21;;;;;;;9.98;4.92;;;;;;;14.71;97.72;99548.91;1726344;81;22866;-67
2022/10/29 01:47:55;;;;;;;16.67;5.15;;;;;;;14.72;97.86;99552.73;1728320;81;20989;-67
2022/10/29 01:50:24;;;;;;;16.15;5.87;;;;;;;14.72;97.90;99552.73;1696704;84;22255;-67
2022/10/29 01:52:52;;;;;;;11.97;4.85;;;;;;;14.77;97.67;99551.13;1730095;81;21072;-67
2022/10/29 01:55:22;;;;;;;12.05;5.60;;;;;;;14.77;97.95;99552.44;1728429;81;21073;-68
2022/10/29 01:57:49;;;;;;;13.50;5.42;;;;;;;14.69;98.06;99544.22;1733345;81;21079;-68
2022/10/29 02:00:18;;;;;;;12.40;6.33;;;;;;;14.72;97.83;99547.48;1732001;81;21561;-68
2022/10/29 02:03:30;;;;;;;10.85;5.22;;;;;;;14.72;97.83;99547.48;1729137;81;22312;-67
2022/10/29 02:06:32;;;;;;;10.98;5.33;;;;;;;14.73;98.18;99536.48;1726992;81;21567;-67
2022/10/29 02:09:25;;;;;;;9.95;4.70;;;;;;;14.84;97.54;99544.97;1725333;81;21005;-67
2022/10/29 02:12:06;;;;;;;10.03;4.80;;;;;;;14.89;97.24;99547.66;1733035;82;20950;-68
2022/10/29 02:14:38;;;;;;;10.40;5.00;;;;;;;14.83;97.54;99533.63;1731611;82;21068;-67
2022/10/29 02:17:24;;;;;;;10.93;5.00;;;;;;;14.80;97.66;99537.77;1730023;82;21044;-68
2022/10/29 02:19:50;;;;;;;;;;;;;;;14.93;96.89;99529.43;1732799;82;21001;-68
2022/10/29 02:22:17;;;;;;;14.15;5.42;;;;;;;14.84;97.41;99543.17;1723332;82;20849;-67
2022/10/29 02:25:04;;;;;;;7.35;4.47;;;;;;;14.85;97.32;99539.62;1724505;81;20946;-68
2022/10/29 02:27:31;;;;;;;12.30;5.12;;;;;;;14.79;97.78;99550.56;1726259;81;20994;-67
2022/10/29 02:29:58;;;;;;;14.70;5.67;;;;;;;14.82;97.73;99550.34;1729286;81;21068;-67
2022/10/29 02:32:24;;;;;;;8.80;4.80;;;;;;;14.94;97.15;99531.10;1730023;81;21704;-67
2022/10/29 02:34:51;;;;;;;10.43;5.20;;;;;;;14.87;97.19;99528.98;1724571;81;21687;-67
2022/10/29 02:37:17;;;;;;;7.87;4.40;;;;;;;14.80;97.72;99525.95;1723102;82;21075;-68
2022/10/29 02:39:44;;;;;;;8.40;5.00;;;;;;;14.95;97.05;99524.88;1720325;82;21614;-67
2022/10/29 02:42:11;;;;;;;9.30;5.27;;;;;;;14.94;97.11;99516.64;1724037;82;21055;-68
2022/10/29 02:44:38;;;;;;;9.00;5.30;;;;;;;14.96;97.26;99526.59;1722112;82;20990;-68
2022/10/29 02:47:23;;;;;;;7.97;4.75;;;;;;;15.00;97.27;99522.79;1699030;83;21063;-68
2022/10/29 02:49:49;;;;;;;14.45;4.95;;;;;;;15.03;97.19;99516.95;1730279;81;21371;-68
2022/10/29 02:52:16;;;;;;;9.60;5.03;;;;;;;15.05;97.20;99518.54;1725241;81;21856;-68
2022/10/29 02:54:43;;;;;;;11.55;5.22;;;;;;;15.05;97.20;99515.07;1726606;81;21141;-68
2022/10/29 02:57:09;;;;;;;18.70;6.40;;;;;;;15.07;97.17;99511.84;1728055;81;21086;-68
2022/10/29 02:59:55;;;;;;;8.85;5.28;;;;;;;15.00;97.30;99509.64;1725457;81;21602;-67
2022/10/29 03:02:40;;;;;;;11.63;4.97;;;;;;;15.09;96.99;99502.91;1686237;83;21005;-67
2022/10/29 03:05:08;;;;;;;11.88;5.22;;;;;;;15.08;96.95;99524.06;1722185;82;20990;-67
2022/10/29 03:07:36;;;;;;;9.60;4.90;;;;;;;15.04;97.12;99517.31;1715935;82;21087;-68
2022/10/29 03:10:21;;;;;;;14.58;4.75;;;;;;;15.04;96.98;99526.52;1686810;83;21021;-67
2022/10/29 03:13:07;;;;;;;9.95;5.12;;;;;;;15.02;96.84;99527.95;1720429;81;21092;-67
2022/10/29 03:15:35;;;;;;;9.13;5.03;;;;;;;15.00;96.77;99533.30;1723211;81;21083;-67
2022/10/29 03:18:03;;;;;;;13.80;5.25;;;;;;;14.96;96.70;99529.22;1722256;81;21352;-67
2022/10/29 03:20:30;;;;;;;10.58;5.58;;;;;;;14.91;96.73;99531.31;1721167;81;21166;-67
2022/10/29 03:22:57;;;;;;;13.88;5.87;;;;;;;14.85;96.88;99526.48;1714462;81;21041;-67
2022/10/29 03:25:23;;;;;;;10.87;5.17;;;;;;;14.86;96.65;99525.52;1690197;83;21617;-67
2022/10/29 03:28:11;;;;;;;10.10;4.92;;;;;;;14.84;96.60;99524.77;1710284;82;21766;-67
2022/10/29 03:30:37;;;;;;;9.75;5.40;;;;;;;14.80;96.71;99527.26;1712558;82;21601;-67
2022/10/29 03:33:04;;;;;;;14.10;5.35;;;;;;;14.74;96.83;99526.37;1722474;81;21107;-67
2022/10/29 03:35:31;;;;;;;13.77;6.67;;;;;;;14.82;96.32;99524.06;1721652;81;21010;-67
2022/10/29 03:37:57;;;;;;;11.90;5.28;;;;;;;14.76;96.34;99523.17;1719113;81;21183;-67
2022/10/29 03:40:43;;;;;;;18.98;5.85;;;;;;;14.79;96.23;99529.53;1712565;82;20983;-67
2022/10/29 03:43:10;;;;;;;11.43;5.12;;;;;;;14.77;96.06;99541.92;1710945;82;21089;-67
2022/10/29 03:45:37;;;;;;;10.30;5.05;;;;;;;14.74;95.95;99542.14;1720958;81;21643;-67
2022/10/29 03:48:05;;;;;;;11.00;6.12;;;;;;;14.69;95.93;99536.34;1741027;81;21041;-67
2022/10/29 03:51:04;;;;;;;15.70;5.95;;;;;;;14.65;96.02;99545.39;1747346;80;21017;-67
2022/10/29 03:53:47;;;;;;;9.18;4.80;;;;;;;14.61;96.07;99537.33;1752767;80;21048;-67
2022/10/29 03:56:14;;;;;;;11.93;5.80;;;;;;;14.58;96.10;99529.65;1737509;81;25409;-67
2022/10/29 03:58:40;;;;;;;9.23;5.95;;;;;;;14.53;95.98;99529.47;1743836;80;21537;-67
2022/10/29 04:01:09;;;;;;;14.80;6.43;;;;;;;14.49;96.02;99524.51;1742012;80;21042;-67
2022/10/29 04:03:37;;;;;;;9.70;5.65;;;;;;;14.43;96.04;99521.81;1739059;80;21056;-67
2022/10/29 04:06:22;;;;;;;16.57;6.53;;;;;;;14.37;96.08;99518.29;1714852;81;21040;-69
2022/10/29 04:08:49;;;;;;;11.90;5.60;;;;;;;14.32;96.12;99529.56;1748451;80;21061;-68
2022/10/29 04:11:16;;;;;;;13.50;6.33;;;;;;;14.30;96.09;99526.19;1759412;80;21507;-67
2022/10/29 04:13:43;;;;;;;11.95;6.00;;;;;;;14.25;96.09;99519.91;1752291;80;21010;-67
2022/10/29 04:16:09;;;;;;;12.43;6.70;;;;;;;14.21;96.21;99517.61;1741669;81;21660;-67
2022/10/29 04:18:37;;;;;;;9.08;5.95;;;;;;;14.18;96.30;99528.31;1737986;81;21502;-67
2022/10/29 04:21:23;;;;;;;13.05;7.15;;;;;;;14.10;96.37;99531.43;1710480;82;21558;-67
2022/10/29 04:24:08;;;;;;;13.05;7.65;;;;;;;14.06;97.03;99546.55;1740449;80;20988;-67
2022/10/29 04:26:35;;;;;;;;;;;;;;;14.15;97.15;99541.65;1756010;80;21545;-67
2022/10/29 04:29:21;;;;;;;15.32;7.87;;;;;;;14.23;96.93;99541.99;1741464;80;20689;-67
2022/10/29 04:31:48;;;;;;;21.17;9.33;;;;;;;14.29;96.90;99533.70;1746321;80;21001;-67
2022/10/29 04:34:15;;;;;;;16.55;8.65;;;;;;;14.34;96.91;99523.75;1742046;80;21781;-67
2022/10/29 04:36:42;;;;;;;18.67;10.10;;;;;;;14.39;96.85;99533.45;1743642;80;21092;-67
2022/10/29 04:39:08;;;;;;;19.75;10.68;;;;;;;14.44;96.86;99528.74;1741770;80;21717;-67
2022/10/29 04:41:54;;;;;;;19.17;10.65;;;;;;;14.48;96.91;99528.92;1749839;80;21037;-67
2022/10/29 04:44:20;;;;;;;19.05;11.35;;;;;;;14.51;97.01;99528.72;1732092;81;21531;-67
2022/10/29 04:46:47;;;;;;;23.70;12.93;;;;;;;14.54;97.02;99523.29;1748062;80;21052;-68
2022/10/29 04:49:14;;;;;;;20.23;10.20;;;;;;;14.57;97.04;99526.19;1746632;80;21648;-67
2022/10/29 04:51:40;;;;;;;18.45;11.83;;;;;;;14.60;97.10;99529.09;1737398;80;21687;-68
2022/10/29 04:54:07;;;;;;;26.10;12.40;;;;;;;14.60;97.11;99529.09;1736293;80;21120;-68
2022/10/29 04:56:34;;;;;;;20.70;12.88;;;;;;;14.62;97.16;99536.37;1719816;80;21071;-67
2022/10/29 04:59:01;;;;;;;23.95;12.73;;;;;;;14.62;97.17;99545.56;1744052;80;20997;-68
2022/10/29 05:01:46;;;;;;;21.87;12.70;;;;;;;14.61;97.24;99558.34;1744152;80;21064;-67
2022/10/29 05:04:13;;;;;;;19.95;13.15;;;;;;;14.61;97.27;99553.09;1738778;80;21589;-68
2022/10/29 05:06:39;;;;;;;25.50;13.43;;;;;;;14.60;97.25;99552.73;1740784;80;21059;-67
2022/10/29 05:09:06;;;;;;;23.60;13.32;;;;;;;14.56;97.25;99552.07;1744939;80;21083;-68
2022/10/29 05:11:34;;;;;;;17.05;13.03;;;;;;;14.48;97.52;99556.51;1744993;79;20957;-68
2022/10/29 05:14:02;;;;;;;;;;;;;;;14.42;97.77;99558.20;1747437;80;21195;-67
2022/10/29 05:16:47;;;;;;;27.30;14.80;;;;;;;14.39;97.93;99556.25;1735052;76;20137;-68
2022/10/29 05:19:13;;;;;;;24.67;15.47;;;;;;;14.37;98.04;99548.94;1719137;82;21088;-67
2022/10/29 05:21:40;;;;;;;30.92;15.72;;;;;;;14.34;98.27;99563.14;1744207;81;20958;-67
2022/10/29 05:24:09;;;;;;;25.43;14.33;;;;;;;14.36;98.13;99568.28;1745511;81;21060;-67
2022/10/29 05:26:37;;;;;;;25.05;13.70;;;;;;;14.36;98.20;99563.86;1747647;81;20993;-67
2022/10/29 05:29:04;;;;;;;21.85;12.73;;;;;;;14.35;98.24;99564.81;1742616;81;21022;-68
2022/10/29 05:31:31;;;;;;;18.90;12.10;;;;;;;14.35;98.45;99559.56;1743537;81;21032;-67
2022/10/29 05:33:58;;;;;;;24.57;13.30;;;;;;;14.34;98.41;99560.52;1744979;81;21442;-68
2022/10/29 05:36:25;;;;;;;22.90;12.25;;;;;;;14.34;98.42;99557.89;1734804;81;20945;-67
2022/10/29 05:38:52;;;;;;;23.38;12.25;;;;;;;14.34;98.39;99560.52;1746357;81;21561;-67
2022/10/29 05:41:19;;;;;;;21.37;12.40;;;;;;;14.38;98.34;99559.84;1746058;81;24564;-67
2022/10/29 05:43:50;;;;;;;21.02;11.38;;;;;;;14.43;98.29;99552.02;1720368;81;20949;-67
2022/10/29 05:46:17;;;;;;;17.92;10.53;;;;;;;14.44;98.09;99541.88;1730174;81;20924;-69
2022/10/29 05:48:43;;;;;;;15.93;9.77;;;;;;;14.46;98.06;99546.56;1745845;81;21013;-67
2022/10/29 05:51:10;;;;;;;17.97;9.37;;;;;;;14.40;98.38;99547.45;1753917;81;22335;-67
2022/10/29 05:53:37;;;;;;;15.80;8.98;;;;;;;14.40;98.41;99561.91;1754160;81;21000;-68
2022/10/29 05:56:22;;;;;;;18.40;11.00;;;;;;;14.46;98.32;99558.39;1748172;81;21567;-67
2022/10/29 05:58:49;;;;;;;14.38;8.33;;;;;;;14.50;98.04;99555.91;1751433;81;21063;-67
2022/10/29 06:01:18;;;;;;;16.95;9.28;;;;;;;14.51;98.07;99554.99;1749904;81;21011;-67
2022/10/29 06:03:45;;;;;;;14.85;8.40;;;;;;;14.48;98.34;99560.45;1750056;81;21058;-66
2022/10/29 06:06:12;;;;;;;15.83;7.85;;;;;;;14.51;98.14;99557.62;1750591;81;21117;-66
2022/10/29 06:08:38;;;;;;;17.50;8.13;;;;;;;14.52;98.13;99556.69;1754611;81;22276;-66
2022/10/29 06:11:05;;;;;;;14.53;6.92;;;;;;;14.57;98.02;99559.51;1748524;81;20950;-66
2022/10/29 06:13:55;;;;;;;11.55;7.47;;;;;;;14.51;98.20;99567.29;1754656;81;21062;-65
2022/10/29 06:16:21;;;;;;;10.82;5.53;;;;;;;14.50;98.33;99576.09;1766800;79;21077;-64
2022/10/29 06:18:48;;;;;;;11.85;5.70;;;;;;;14.51;98.34;99574.70;1774433;80;21101;-65
2022/10/29 06:21:15;;;;;;;15.70;6.47;;;;;;;14.52;98.33;99570.31;1778990;80;21515;-65
2022/10/29 06:24:00;;;;;;;11.80;5.50;;;;;;;14.54;98.24;99577.62;1778719;79;20967;-65
2022/10/29 06:26:45;;;;;;;10.80;6.00;;;;;;;14.54;98.18;99575.84;1771945;79;21601;-64
2022/10/29 06:29:12;;;;;;;14.10;6.35;;;;;;;14.55;98.10;99581.92;1780555;79;21113;-64
2022/10/29 06:31:39;;;;;;;144.62;86.02;;;;;;;14.54;98.13;99575.84;1773093;80;21046;-64
2022/10/29 06:34:05;;;;;;;20.70;9.20;;;;;;;14.53;98.17;99576.76;1773547;80;20908;-66
2022/10/29 06:36:51;;;;;;;12.20;5.80;;;;;;;14.55;98.16;99585.39;1769055;80;21334;-66
2022/10/29 06:39:17;;;;;;;11.80;5.10;;;;;;;14.57;98.15;99592.34;1774486;79;20962;-64
2022/10/29 06:41:44;;;;;;;11.97;5.20;;;;;;;14.58;98.06;99591.39;1771191;79;21559;-64
2022/10/29 06:44:11;;;;;;;14.65;5.00;;;;;;;14.57;98.03;99576.59;1771691;80;20990;-65
2022/10/29 06:46:38;;;;;;;12.70;4.90;;;;;;;14.60;97.97;99582.95;1772132;79;20981;-66
2022/10/29 06:49:05;;;;;;;11.78;5.58;;;;;;;14.59;97.89;99587.81;1770649;80;20921;-65
2022/10/29 06:51:51;;;;;;;12.93;4.62;;;;;;;14.60;97.68;99589.52;1776894;80;21037;-65
2022/10/29 06:54:17;;;;;;;12.55;5.15;;;;;;;14.58;97.62;99583.52;1777564;79;21087;-66
2022/10/29 06:56:44;;;;;;;10.40;4.50;;;;;;;14.58;97.61;99596.65;1773410;80;20986;-65
2022/10/29 06:59:11;;;;;;;7.57;4.13;;;;;;;14.48;97.34;99568.33;1770872;79;21380;-65
2022/10/29 07:01:56;;;;;;;10.58;4.75;;;;;;;14.60;97.37;99589.52;1768517;80;21800;-65
2022/10/29 07:04:22;;;;;;;12.37;4.90;;;;;;;14.63;97.24;99599.82;1775168;79;21005;-65
2022/10/29 07:06:49;;;;;;;7.17;3.97;;;;;;;14.63;97.29;99603.77;1771947;79;21531;-63
2022/10/29 08:54:40;;;;;;;12.75;3.25;;;;;;;14.39;97.85;99688.42;1749665;76;21029;-67
2022/10/29 08:57:28;;;;;;;11.50;3.47;;;;;;;14.48;97.94;99704.94;1749009;79;21127;-65
2022/10/29 09:00:23;;;;;;;8.65;2.72;;;;;;;14.59;97.80;99700.80;1750200;79;21069;-64
2022/10/29 09:02:58;;;;;;;9.77;2.70;;;;;;;14.66;97.30;99702.09;1746696;79;21551;-62
2022/10/29 09:05:45;;;;;;;8.38;2.92;;;;;;;14.74;96.78;99702.45;1800963;75;21120;-66
2022/10/29 09:08:30;;;;;;;8.05;2.80;;;;;;;14.81;96.46;99708.14;1738437;80;21354;-66
2022/10/29 09:11:44;;;;;;;12.75;2.70;;;;;;;14.84;96.48;99716.66;1727898;80;22280;-66
2022/10/29 09:14:52;;;;;;;10.88;2.90;;;;;;;14.75;95.32;99713.33;1695105;80;24941;-65
2022/10/29 09:17:35;;;;;;;11.65;3.00;;;;;;;14.62;95.38;99726.87;1668880;85;21689;-71
2022/10/29 09:21:51;;;;;;;10.38;2.72;;;;;;;14.86;95.93;99730.55;1871115;74;22549;-66
2022/10/29 09:24:47;;;;;;;15.25;3.15;;;;;;;14.95;95.71;99727.80;1844497;77;20991;-66
2022/10/29 09:31:46;;;;;;;8.43;2.52;;;;;;;14.84;94.46;99728.97;1834341;77;22676;-65
2022/10/29 09:34:45;;;;;;;6.65;2.05;;;;;;;14.68;92.73;99731.76;1805241;78;21897;-67
2022/10/29 09:37:23;;;;;;;6.90;2.47;;;;;;;14.61;93.12;99746.22;1801904;78;21507;-67
2022/10/29 09:40:37;;;;;;;8.33;3.37;;;;;;;14.50;93.66;99746.86;1779619;78;21562;-67
2022/10/29 09:43:19;;;;;;;11.40;2.65;;;;;;;14.46;93.40;99743.59;1796835;78;20990;-67
2022/10/29 09:46:02;;;;;;;9.33;2.85;;;;;;;14.39;93.63;99742.27;1804935;78;20989;-67
2022/10/29 09:48:40;;;;;;;7.17;2.30;;;;;;;14.38;93.45;99748.48;1805420;78;21524;-67
2022/10/29 09:51:21;;;;;;;9.70;3.08;;;;;;;14.30;92.96;99745.48;1801739;78;21044;-66
2022/10/29 09:53:50;;;;;;;5.90;2.42;;;;;;;14.29;93.26;99752.53;1810914;78;21013;-66
2022/10/29 09:56:18;;;;;;;8.53;2.00;;;;;;;14.42;92.25;99757.84;1792183;78;20942;-67
2022/10/29 09:58:49;;;;;;;5.50;2.08;;;;;;;14.45;92.36;99760.30;1816026;78;20974;-67
2022/10/29 10:01:17;;;;;;;7.92;3.02;;;;;;;14.43;91.75;99764.80;1806259;77;21009;-66
2022/10/29 10:03:48;;;;;;;9.43;2.98;;;;;;;14.35;91.61;99757.87;1806125;78;21432;-66
2022/10/29 10:06:16;;;;;;;8.38;3.22;;;;;;;14.38;92.03;99756.36;1800068;77;21290;-66
2022/10/29 10:09:04;;;;;;;16.35;2.80;;;;;;;14.33;91.41;99763.67;1800533;78;21003;-65
2022/10/29 10:11:38;;;;;;;7.87;2.10;;;;;;;14.29;91.69;99760.41;1806268;78;21056;-66
2022/10/29 10:14:10;;;;;;;9.43;2.47;;;;;;;14.40;91.99;99759.74;1799686;78;20979;-67
2022/10/29 10:16:37;;;;;;;8.05;2.55;;;;;;;14.42;91.46;99761.78;1812597;77;21175;-67
2022/10/29 10:19:15;;;;;;;13.88;2.77;;;;;;;14.39;91.30;99763.77;1804831;78;21534;-66
2022/10/29 10:21:42;;;;;;;7.70;2.55;;;;;;;14.42;91.50;99750.44;1717826;81;21143;-66
2022/10/29 10:24:14;;;;;;;10.28;2.87;;;;;;;14.52;91.55;99745.02;1723712;81;21182;-67
2022/10/29 10:26:42;;;;;;;6.90;2.62;;;;;;;14.58;91.12;99757.77;1704630;81;21074;-66
2022/10/29 10:29:21;;;;;;;9.43;2.20;;;;;;;14.53;90.68;99752.79;1720861;81;21204;-66
2022/10/29 10:32:00;;;;;;;7.25;2.50;;;;;;;14.53;90.62;99751.47;1723319;81;21759;-66
2022/10/29 10:34:35;;;;;;;8.95;2.17;;;;;;;14.53;90.31;99748.84;1720964;82;20992;-66
2022/10/29 10:37:12;;;;;;;6.92;2.30;;;;;;;14.51;90.13;99752.03;1724494;82;21100;-65
2022/10/29 10:40:07;;;;;;;10.55;3.12;;;;;;;14.54;90.33;99754.49;1721790;81;21083;-65
2022/10/29 10:42:54;;;;;;;9.15;2.35;;;;;;;14.54;89.93;99755.81;1706313;83;21051;-65
2022/10/29 10:45:36;;;;;;;11.33;2.42;;;;;;;14.60;89.87;99760.31;1715651;82;21084;-66
2022/10/29 10:48:09;;;;;;;11.83;2.35;;;;;;;14.59;89.72;99761.23;1718004;81;20964;-66
2022/10/29 10:51:21;;;;;;;7.50;2.17;;;;;;;14.66;89.82;99762.54;1719347;81;21092;-66
2022/10/29 10:53:50;;;;;;;6.72;2.02;;;;;;;14.64;88.72;99759.16;1698191;83;21008;-66
2022/10/29 10:56:41;;;;;;;7.03;2.22;;;;;;;14.63;89.18;99770.63;1678504;83;21041;-66
2022/10/29 10:59:11;;;;;;;10.68;2.62;;;;;;;14.73;89.10;99763.82;1716068;81;21081;-66
2022/10/29 11:01:46;;;;;;;6.62;2.40;;;;;;;14.72;88.70;99762.98;1743890;81;20950;-65
2022/10/29 11:04:27;;;;;;;6.80;2.10;;;;;;;14.71;88.58;99765.73;1748705;81;20946;-66
2022/10/29 11:06:59;;;;;;;8.10;2.95;;;;;;;14.71;88.25;99774.45;1755263;81;21022;-66
2022/10/29 11:09:36;;;;;;;3.37;1.62;;;;;;;14.79;88.50;99768.71;1760861;81;21489;-66
2022/10/29 11:12:40;;;;;;;9.40;2.30;;;;;;;14.79;84.87;99770.03;1752076;81;21104;-66
2022/10/29 11:15:24;;;;;;;8.05;2.70;;;;;;;14.70;87.23;99767.52;1712223;82;21056;-65
2022/10/29 11:17:55;;;;;;;8.55;2.60;;;;;;;14.65;87.61;99758.23;1725856;82;21014;-65
2022/10/29 11:20:26;;;;;;;5.17;1.98;;;;;;;14.58;87.31;99780.58;1726389;82;21125;-66
2022/10/29 11:23:44;;;;;;;5.42;2.05;;;;;;;14.52;87.11;99776.07;1741090;82;21642;-67
2022/10/29 11:26:42;;;;;;;10.20;3.10;;;;;;;14.55;87.41;99779.81;1776327;80;21053;-66
2022/10/29 11:29:46;;;;;;;7.17;3.42;;;;;;;14.58;86.85;99770.06;1712656;81;20994;-65
2022/10/29 11:32:34;;;;;;;6.55;2.20;;;;;;;14.55;86.89;99773.72;1773139;79;20998;-65
2022/10/29 11:35:34;;;;;;;10.43;1.98;;;;;;;14.53;86.51;99773.80;1776624;80;21435;-65
2022/10/29 11:38:30;;;;;;;9.40;2.92;;;;;;;14.50;86.70;99772.66;1780971;80;21200;-65
2022/10/29 11:41:27;;;;;;;9.95;2.75;;;;;;;14.49;86.44;99776.23;1776545;80;20982;-65
2022/10/29 11:43:54;;;;;;;7.08;1.90;;;;;;;14.51;86.58;99765.17;1773493;80;20993;-66
2022/10/29 11:47:07;;;;;;;8.23;2.33;;;;;;;14.45;86.21;99776.06;1781589;80;21554;-66
2022/10/29 11:49:51;;;;;;;8.68;3.15;;;;;;;14.40;86.01;99780.76;1762284;80;21040;-64
2022/10/29 11:53:00;;;;;;;12.30;2.95;;;;;;;14.33;85.78;99782.06;1805287;78;21211;-66
2022/10/29 11:55:44;;;;;;;11.45;2.60;;;;;;;14.27;86.08;99772.78;1805160;77;20958;-65
2022/10/29 11:58:56;;;;;;;7.25;2.20;;;;;;;14.31;85.82;99776.05;1812205;78;20923;-66
2022/10/29 12:01:37;;;;;;;11.60;2.75;;;;;;;14.36;85.62;99780.55;1807364;78;20997;-65
2022/10/29 12:04:18;;;;;;;7.35;3.25;;;;;;;14.38;85.64;99769.49;1794877;78;21049;-66
2022/10/29 12:07:03;;;;;;;9.15;2.60;;;;;;;14.38;85.41;99765.55;1810991;78;21154;-66
2022/10/29 12:10:07;;;;;;;5.87;2.25;;;;;;;14.36;85.26;99766.11;1804067;78;21010;-65
2022/10/29 12:12:57;;;;;;;6.08;1.92;;;;;;;14.41;85.23;99756.16;1725390;82;20978;-66
2022/10/29 12:15:52;;;;;;;8.60;2.58;;;;;;;14.39;85.29;99750.16;1672859;85;21071;-66
2022/10/29 12:18:36;;;;;;;7.62;2.40;;;;;;;14.47;85.14;99757.09;1672881;84;21016;-66
2022/10/29 12:21:27;;;;;;;7.75;2.25;;;;;;;;;;1657719;85;21921;-66
2022/10/29 12:24:41;;;;;;;7.80;1.85;;;;;;;14.48;84.92;99749.59;1605023;88;20989;-66
2022/10/29 12:27:35;;;;;;;5.85;1.95;;;;;;;14.45;84.29;99749.80;1606233;88;21183;-67
2022/10/29 12:30:08;;;;;;;7.80;1.60;;;;;;;14.30;84.23;99746.80;1588885;88;21136;-65
2022/10/29 12:33:13;;;;;;;7.50;1.87;;;;;;;14.31;84.30;99770.80;1587352;89;21113;-66
2022/10/29 12:35:55;;;;;;;5.20;1.60;;;;;;;14.32;84.25;99777.76;1571450;89;21116;-64
2022/10/29 12:38:36;;;;;;;7.60;2.55;;;;;;;14.35;83.80;99778.88;1570359;89;21318;-66
2022/10/29 12:41:10;;;;;;;7.97;2.10;;;;;;;14.36;84.18;99776.61;1566396;89;21135;-67
2022/10/29 12:44:13;;;;;;;6.40;2.30;;;;;;;14.44;83.99;99782.72;1566245;89;22002;-66
2022/10/29 12:47:12;;;;;;;5.35;1.80;;;;;;;14.48;83.87;99784.20;1563606;89;21653;-66
2022/10/29 12:50:12;;;;;;;4.83;1.98;;;;;;;14.45;83.30;99794.45;1654768;82;21070;-66
2022/10/29 12:53:05;;;;;;;7.62;2.12;;;;;;;14.31;82.81;99789.19;1694617;84;21028;-66
2022/10/29 12:55:34;;;;;;;6.47;1.80;;;;;;;14.20;82.94;99787.69;1691593;83;21029;-66
2022/10/29 12:59:46;;;;;;;9.25;2.40;;;;;;;14.03;82.68;99798.77;1821546;76;27771;-65
2022/10/29 13:02:39;;;;;;;6.10;1.90;;;;;;;14.05;82.76;99799.50;1816673;78;21081;-66
2022/10/29 13:05:12;;;;;;;5.45;2.17;;;;;;;14.04;82.72;99808.33;1831016;78;21371;-65
2022/10/29 13:08:06;;;;;;;5.80;2.15;;;;;;;14.12;82.95;99793.91;1760537;80;20981;-65
2022/10/29 13:10:43;;;;;;;6.97;2.37;;;;;;;14.08;82.57;99787.97;1782637;79;20983;-65
2022/10/29 13:13:22;;;;;;;7.17;2.25;;;;;;;14.03;82.51;99792.65;1775818;79;21005;-65
2022/10/29 13:16:02;;;;;;;6.22;2.00;;;;;;;14.00;82.66;99784.96;1769943;79;21542;-66
2022/10/29 13:18:50;;;;;;;7.03;1.60;;;;;;;13.95;82.45;99800.14;1775983;79;22344;-66
2022/10/29 13:21:56;;;;;;;6.67;1.77;;;;;;;13.87;82.28;99798.00;1770058;79;22349;-67
2022/10/29 13:24:25;;;;;;;6.58;1.70;;;;;;;13.79;82.12;99801.06;1776148;79;20965;-66
2022/10/29 13:28:13;;;;;;;6.58;1.80;;;;;;;13.70;81.98;99811.28;1870094;76;22742;-64
2022/10/29 13:30:43;;;;;;;6.90;1.80;;;;;;;13.56;81.97;99822.58;1791611;77;21596;-66
2022/10/29 13:33:33;;;;;;;7.78;2.08;;;;;;;13.44;82.01;99820.17;1846647;77;21149;-68
2022/10/29 13:36:23;;;;;;;4.92;1.82;;;;;;;13.38;82.06;99824.45;1853424;77;21064;-66
2022/10/29 13:38:56;;;;;;;8.10;2.10;;;;;;;13.34;82.05;99815.09;1841435;77;21523;-66
2022/10/29 13:41:44;;;;;;;5.40;1.85;;;;;;;13.30;82.09;99817.49;1853350;77;21559;-66
2022/10/29 13:44:22;;;;;;;9.15;2.12;;;;;;;13.26;82.17;99822.55;1841226;77;20903;-65
2022/10/29 13:47:01;;;;;;;6.37;1.87;;;;;;;13.24;82.23;99815.19;1823779;77;21330;-66
2022/10/29 13:49:33;;;;;;;6.50;2.37;;;;;;;13.22;82.28;99813.98;1852560;76;21538;-66
2022/10/29 13:52:17;;;;;;;14.80;3.20;;;;;;;13.21;82.31;99814.42;1831790;77;20891;-66
2022/10/29 13:54:57;;;;;;;8.50;2.00;;;;;;;13.19;82.24;99812.38;1846594;77;21465;-66
2022/10/29 13:58:05;;;;;;;6.42;2.35;;;;;;;13.18;82.24;99815.91;1847228;77;20954;-66
2022/10/29 14:00:35;;;;;;;9.15;2.70;;;;;;;13.14;82.08;99803.92;1824114;77;21451;-66
2022/10/29 14:03:31;;;;;;;8.35;2.27;;;;;;;13.11;82.04;99811.13;1836573;77;21023;-66
2022/10/29 14:06:11;;;;;;;8.75;2.25;;;;;;;13.05;82.03;99816.25;1837108;77;21523;-67
2022/10/29 14:09:03;;;;;;;8.20;2.20;;;;;;;13.03;81.97;99815.48;1837280;77;21051;-65
2022/10/29 14:11:36;;;;;;;7.45;1.75;;;;;;;12.97;82.00;99814.52;1839606;77;20918;-66
2022/10/29 14:14:04;;;;;;;9.60;3.42;;;;;;;12.94;81.72;99835.66;1831084;77;21092;-65